Time;durP1;ratioP1;P1;durP2;ratioP2;P2;SDS_P1;SDS_P2;PMS_P1;PMS_P2;Temp;Humidity;BMP_temperature;BMP_pressure;BME280_temperature;BME280_humidity;BME280_pressure;Samples;Min_cycle;Max_cycle;Signal;HPM_P1;HPM_P2
2021/12/09 00:01:03;;;;;;;12.77;6.03;;;;;;;2.99;70.95;98653.22;5117636;27;20400;-66
2021/12/09 00:03:40;;;;;;;16.67;6.95;;;;;;;3.00;70.58;98670.84;5117436;28;20127;-65
2021/12/09 00:06:12;;;;;;;15.85;6.47;;;;;;;3.08;70.15;98668.44;5117655;28;20408;-66
2021/12/09 00:08:45;;;;;;;17.67;6.30;;;;;;;3.01;69.47;98666.66;5116520;28;20497;-65
2021/12/09 00:11:19;;;;;;;12.82;6.18;;;;;;;3.00;70.35;98680.13;5117276;28;20048;-65
2021/12/09 00:13:52;;;;;;;14.48;6.15;;;;;;;2.73;69.98;98681.41;5117825;28;20370;-65
2021/12/09 00:16:24;;;;;;;12.25;5.90;;;;;;;2.71;69.78;98683.06;5117112;28;20131;-65
2021/12/09 00:18:59;;;;;;;12.75;6.15;;;;;;;2.76;70.31;98688.16;5117439;28;20519;-64
2021/12/09 00:21:31;;;;;;;13.98;6.95;;;;;;;2.79;69.96;98700.81;5117388;28;20078;-65
2021/12/09 00:24:00;;;;;;;14.23;6.88;;;;;;;2.78;70.62;98698.28;5117091;28;20036;-66
2021/12/09 00:26:34;;;;;;;12.85;5.63;;;;;;;2.85;69.69;98689.97;5117002;28;20051;-66
2021/12/09 00:29:04;;;;;;;12.43;5.53;;;;;;;2.79;70.48;98690.72;5117593;27;20077;-66
2021/12/09 00:31:36;;;;;;;9.90;4.20;;;;;;;2.78;70.39;98683.16;5116816;28;20496;-66
2021/12/09 00:34:06;;;;;;;10.80;4.40;;;;;;;2.79;69.21;98673.09;5117182;28;20475;-65
2021/12/09 00:36:42;;;;;;;8.38;3.88;;;;;;;2.88;69.24;98669.88;5117018;28;20576;-65
2021/12/09 00:39:13;;;;;;;7.50;3.45;;;;;;;2.93;68.60;98664.03;5117091;28;20085;-65
2021/12/09 00:41:47;;;;;;;10.27;4.13;;;;;;;2.97;68.17;98669.97;5116738;28;20059;-67
2021/12/09 00:44:17;;;;;;;10.20;4.82;;;;;;;3.03;68.49;98659.97;5116684;28;20052;-67
2021/12/09 00:46:49;;;;;;;11.05;4.60;;;;;;;3.14;68.13;98658.44;5116617;27;20130;-66
2021/12/09 00:49:29;;;;;;;10.35;5.00;;;;;;;3.26;67.17;98661.94;5116550;28;20059;-65
2021/12/09 00:52:02;;;;;;;9.10;4.05;;;;;;;3.27;67.57;98656.06;5116462;28;20052;-65
2021/12/09 00:54:35;;;;;;;9.25;4.55;;;;;;;3.20;67.47;98649.28;5116470;28;20058;-65
2021/12/09 00:57:09;;;;;;;10.93;4.85;;;;;;;3.15;67.35;98650.03;5116341;28;20036;-65
2021/12/09 00:59:42;;;;;;;12.23;5.32;;;;;;;3.14;67.02;98658.44;5116372;28;20063;-65
2021/12/09 01:02:14;;;;;;;12.07;5.18;;;;;;;3.11;67.45;98648.31;5115980;28;20051;-65
2021/12/09 01:04:46;;;;;;;10.02;4.93;;;;;;;3.16;67.37;98654.25;5116284;28;20047;-65
2021/12/09 01:07:19;;;;;;;12.05;5.13;;;;;;;3.16;66.85;98656.78;5115307;28;20048;-66
2021/12/09 01:09:51;;;;;;;9.95;3.58;;;;;;;3.20;66.23;98658.50;5116151;28;20051;-66
2021/12/09 01:12:26;;;;;;;10.65;5.82;;;;;;;3.18;66.72;98650.09;5116390;28;20043;-65
2021/12/09 01:14:58;;;;;;;13.25;5.68;;;;;;;3.08;66.71;98649.13;5116388;28;20481;-65
2021/12/09 01:18:11;;;;;;;13.38;6.13;;;;;;;3.11;67.05;98643.28;5269614;22;20043;31
2021/12/09 01:20:41;;;;;;;14.45;5.88;;;;;;;3.20;66.77;98653.47;4956155;28;20058;-72
2021/12/09 01:23:14;;;;;;;12.13;5.22;;;;;;;3.33;66.36;98662.88;4957543;28;20122;-72
2021/12/09 01:25:48;;;;;;;11.73;4.65;;;;;;;3.35;65.95;98653.66;4957554;28;20056;-74
2021/12/09 01:28:26;;;;;;;12.98;5.18;;;;;;;3.33;66.35;98652.78;4957768;28;20043;-73
2021/12/09 01:31:01;;;;;;;14.13;6.30;;;;;;;3.28;66.62;98646.84;4957107;28;20106;-73
2021/12/09 01:33:31;;;;;;;10.93;4.93;;;;;;;3.31;66.80;98642.66;4957068;28;20058;-72
2021/12/09 01:36:05;;;;;;;12.93;5.45;;;;;;;3.33;66.83;98645.22;4956994;28;20126;-73
2021/12/09 01:38:35;;;;;;;12.50;5.45;;;;;;;3.41;66.28;98643.59;4957338;28;20386;-73
2021/12/09 01:41:06;;;;;;;12.45;6.07;;;;;;;3.49;66.67;98654.63;4956887;28;20047;-73
2021/12/09 01:43:37;;;;;;;11.38;4.72;;;;;;;3.54;66.39;98644.59;4957476;28;20370;-72
2021/12/09 01:46:13;;;;;;;13.70;6.47;;;;;;;3.51;66.67;98640.38;4956868;28;20058;-72
2021/12/09 01:48:48;;;;;;;12.80;5.70;;;;;;;3.47;67.17;98638.66;4956827;28;20130;-72
2021/12/09 01:51:19;;;;;;;11.90;5.15;;;;;;;3.47;67.11;98633.59;4956765;28;20057;-72
2021/12/09 01:53:52;;;;;;;11.85;4.90;;;;;;;3.44;66.34;98632.72;4956802;28;20110;-72
2021/12/09 01:56:26;;;;;;;10.52;5.28;;;;;;;3.42;66.93;98645.31;4956520;28;20524;-73
2021/12/09 01:59:05;;;;;;;11.98;4.85;;;;;;;3.36;66.01;98632.63;4956950;28;20133;-73
2021/12/09 02:01:37;;;;;;;8.43;4.25;;;;;;;3.37;66.71;98627.63;4956544;28;20070;-73
2021/12/09 02:04:15;;;;;;;13.13;4.72;;;;;;;3.34;66.15;98616.63;4956854;28;20043;-73
2021/12/09 02:06:47;;;;;;;8.40;4.43;;;;;;;3.16;65.95;98588.72;4956755;28;20061;-73
2021/12/09 02:09:20;;;;;;;8.18;4.03;;;;;;;3.26;65.81;98603.13;4956441;28;20071;-72
2021/12/09 02:11:52;;;;;;;10.65;4.93;;;;;;;3.28;66.06;98606.50;4955844;28;20074;-72
2021/12/09 02:14:26;;;;;;;9.88;4.82;;;;;;;3.34;66.91;98601.50;4956580;28;20066;-73
2021/12/09 02:16:59;;;;;;;10.25;5.00;;;;;;;3.35;65.99;98614.16;4956195;28;20047;-73
2021/12/09 02:19:32;;;;;;;9.52;4.47;;;;;;;3.38;66.36;98613.34;4979620;28;20076;-72
2021/12/09 02:22:03;;;;;;;11.13;5.30;;;;;;;3.49;66.97;98626.91;4995166;28;20496;-72
2021/12/09 02:24:35;;;;;;;12.05;5.82;;;;;;;3.43;66.46;98604.16;4995138;28;20054;-73
2021/12/09 02:27:07;;;;;;;10.60;5.10;;;;;;;3.30;66.55;98589.72;4994869;28;20057;-72
2021/12/09 02:29:43;;;;;;;11.30;5.57;;;;;;;3.25;66.62;98586.31;4994766;28;20054;-73
2021/12/09 02:32:15;;;;;;;13.27;5.47;;;;;;;3.19;67.23;98571.13;4995002;28;20491;-72
2021/12/09 02:34:47;;;;;;;10.93;4.82;;;;;;;3.19;66.40;98574.47;4998178;28;20042;-75
2021/12/09 02:37:22;;;;;;;11.20;5.22;;;;;;;3.29;67.04;98562.81;4995765;28;20496;-72
2021/12/09 02:39:56;;;;;;;10.95;5.30;;;;;;;3.16;66.73;98555.97;4994948;28;20210;-72
2021/12/09 02:42:29;;;;;;;12.07;5.45;;;;;;;3.17;66.78;98562.69;4994885;28;20559;-73
2021/12/09 02:45:01;;;;;;;11.55;5.50;;;;;;;3.10;66.92;98581.09;4994578;28;20042;-72
2021/12/09 02:47:35;;;;;;;12.32;5.65;;;;;;;3.13;67.37;98581.97;4994833;28;20054;-73
2021/12/09 02:50:09;;;;;;;10.55;5.20;;;;;;;3.18;67.47;98574.47;4994728;28;20046;-73
2021/12/09 02:52:40;;;;;;;9.40;4.80;;;;;;;3.24;67.32;98579.56;4994439;28;20050;-72
2021/12/09 02:55:13;;;;;;;11.73;4.90;;;;;;;3.25;67.18;98573.69;4994385;28;20145;-72
2021/12/09 02:57:45;;;;;;;10.70;4.57;;;;;;;3.19;67.19;98554.31;4994274;28;20062;-73
2021/12/09 03:00:20;;;;;;;11.18;5.18;;;;;;;3.16;66.95;98561.84;4994616;28;20433;-72
2021/12/09 03:02:54;;;;;;;11.63;4.85;;;;;;;3.18;66.50;98564.38;4994345;28;20085;-72
2021/12/09 03:05:28;;;;;;;10.13;5.43;;;;;;;3.20;66.24;98575.31;4994274;28;20054;-72
2021/12/09 03:08:02;;;;;;;14.57;5.38;;;;;;;3.20;66.78;98582.88;4994228;28;20049;-72
2021/12/09 03:10:34;;;;;;;12.07;5.00;;;;;;;3.22;66.58;98578.69;4994616;28;20116;-72
2021/12/09 03:13:10;;;;;;;10.80;4.78;;;;;;;3.27;66.42;98561.94;4994556;28;20403;-72
2021/12/09 03:15:40;;;;;;;9.00;3.92;;;;;;;3.13;66.05;98526.53;4994256;28;20070;-73
2021/12/09 03:18:12;;;;;;;8.73;3.80;;;;;;;3.08;66.14;98513.03;4994372;28;20046;-73
2021/12/09 03:20:44;;;;;;;7.82;4.28;;;;;;;3.08;66.16;98502.09;4994557;28;20064;-73
2021/12/09 03:23:18;;;;;;;10.40;3.95;;;;;;;3.13;66.81;98520.63;4994557;28;20050;-73
2021/12/09 03:25:50;;;;;;;6.07;3.42;;;;;;;3.12;66.94;98546.69;4998183;28;20399;-72
2021/12/09 03:28:23;;;;;;;13.18;4.38;;;;;;;3.08;66.42;98538.25;4998481;28;20500;-73
2021/12/09 03:30:58;;;;;;;7.88;3.85;;;;;;;3.08;66.07;98550.00;4998311;28;20048;-73
2021/12/09 03:33:30;;;;;;;9.02;3.95;;;;;;;3.07;66.18;98525.63;4998377;28;20101;-73
2021/12/09 03:36:06;;;;;;;9.88;3.83;;;;;;;3.06;66.11;98539.91;4997958;28;20050;-73
2021/12/09 03:38:37;;;;;;;8.55;3.38;;;;;;;3.07;66.44;98545.78;4998174;28;20506;-73
2021/12/09 03:41:10;;;;;;;8.63;4.15;;;;;;;3.09;66.81;98529.00;4998230;28;20141;-72
2021/12/09 03:43:40;;;;;;;10.13;4.47;;;;;;;3.15;66.97;98534.09;4998157;28;20455;-73
2021/12/09 03:46:12;;;;;;;8.93;4.05;;;;;;;3.10;66.24;98510.53;4998808;28;20050;-73
2021/12/09 03:48:41;;;;;;;11.30;4.30;;;;;;;3.03;66.16;98519.69;4997735;28;20049;-73
2021/12/09 03:51:14;;;;;;;10.00;4.03;;;;;;;3.07;66.54;98528.16;4997752;28;20096;-74
2021/12/09 03:53:45;;;;;;;9.27;4.18;;;;;;;3.10;66.89;98520.59;4997681;28;20054;-73
2021/12/09 03:56:18;;;;;;;8.20;3.60;;;;;;;3.15;66.23;98497.13;4997842;28;20046;-72
2021/12/09 03:58:48;;;;;;;9.40;4.00;;;;;;;3.14;66.71;98517.31;4997848;28;20051;-73
2021/12/09 04:01:20;;;;;;;8.38;3.60;;;;;;;3.18;66.36;98549.25;4997795;28;20046;-73
2021/12/09 04:03:50;;;;;;;9.32;4.13;;;;;;;3.27;66.31;98546.81;4997846;28;20054;-73
2021/12/09 04:06:24;;;;;;;9.27;3.47;;;;;;;3.22;66.07;98545.94;4997701;28;20606;-73
2021/12/09 04:08:58;;;;;;;10.15;4.18;;;;;;;3.25;66.49;98535.88;4997719;28;20096;-73
2021/12/09 04:11:30;;;;;;;9.30;4.22;;;;;;;3.27;65.84;98540.09;4997278;28;20512;-72
2021/12/09 04:14:01;;;;;;;8.45;4.18;;;;;;;3.26;65.71;98537.59;4997564;28;20407;-72
2021/12/09 04:16:35;;;;;;;9.15;4.00;;;;;;;3.30;65.57;98551.91;4997532;28;20137;-72
2021/12/09 04:19:09;;;;;;;9.95;4.20;;;;;;;3.31;66.22;98535.97;4996299;28;20088;-73
2021/12/09 04:21:42;;;;;;;10.10;4.18;;;;;;;3.29;66.05;98540.09;4997212;28;20067;-71
2021/12/09 04:24:17;;;;;;;8.13;3.78;;;;;;;3.28;66.03;98530.88;4997105;28;20054;-72
2021/12/09 04:26:52;;;;;;;10.27;3.83;;;;;;;3.25;66.16;98520.75;4996965;28;20046;-73
2021/12/09 04:29:24;;;;;;;9.25;3.80;;;;;;;3.25;65.68;98530.84;4996998;28;20069;-72
2021/12/09 04:31:56;;;;;;;11.50;4.50;;;;;;;3.29;65.66;98530.03;4997271;28;20056;-73
2021/12/09 04:34:30;;;;;;;8.85;3.65;;;;;;;3.34;65.81;98546.91;4997212;28;20504;-72
2021/12/09 04:37:03;;;;;;;9.40;4.40;;;;;;;3.41;65.59;98547.78;4996562;28;20038;-72
2021/12/09 04:39:34;;;;;;;8.50;4.38;;;;;;;3.49;65.54;98573.09;4996859;28;20069;-73
2021/12/09 04:42:07;;;;;;;10.43;4.30;;;;;;;3.62;65.37;98568.19;4997449;28;20051;-71
2021/12/09 04:44:40;;;;;;;10.00;4.53;;;;;;;3.67;65.86;98579.13;4996721;28;20057;-72
2021/12/09 04:47:12;;;;;;;10.75;4.70;;;;;;;3.69;65.25;98569.06;4996632;28;20054;-73
2021/12/09 04:49:45;;;;;;;11.10;5.00;;;;;;;3.70;65.52;98556.47;4997027;28;20400;-72
2021/12/09 04:52:17;;;;;;;9.30;4.85;;;;;;;3.65;65.67;98548.00;4996904;28;20065;-72
2021/12/09 04:54:51;;;;;;;9.02;4.78;;;;;;;3.64;65.41;98553.91;4996549;28;20092;-72
2021/12/09 04:57:23;;;;;;;10.50;4.45;;;;;;;3.62;66.13;98557.25;4996429;28;20129;-72
2021/12/09 04:59:56;;;;;;;11.48;5.35;;;;;;;3.59;65.67;98555.53;4996415;28;20050;-72
2021/12/09 05:02:40;;;;;;;10.60;4.63;;;;;;;3.58;66.00;98545.41;4996497;28;20488;-73
2021/12/09 05:05:13;;;;;;;11.25;4.53;;;;;;;3.43;66.36;98566.31;4996407;28;20066;-73
2021/12/09 05:07:46;;;;;;;12.27;4.78;;;;;;;3.47;67.11;98565.50;4996733;28;20053;-73
2021/12/09 05:10:18;;;;;;;9.68;4.85;;;;;;;3.52;67.31;98576.50;4996808;28;20050;-72
2021/12/09 05:12:50;;;;;;;8.80;3.97;;;;;;;3.39;66.48;98587.28;4996287;28;20042;-71
2021/12/09 05:15:22;;;;;;;10.27;4.75;;;;;;;3.40;67.11;98588.97;4996506;28;20060;-72
2021/12/09 05:17:55;;;;;;;9.45;4.40;;;;;;;3.49;67.24;98585.69;4996041;28;20046;-72
2021/12/09 05:20:24;;;;;;;10.48;4.18;;;;;;;3.50;67.39;98568.06;4995178;28;20069;-72
2021/12/09 05:22:56;;;;;;;;;;;;;;;3.56;67.45;98562.22;4996695;28;20429;-72
2021/12/09 05:25:31;;;;;;;9.63;4.28;;;;;;;3.58;67.78;98548.78;4996023;28;19922;-71
2021/12/09 05:28:04;;;;;;;14.15;5.70;;;;;;;3.57;67.51;98549.63;4995933;28;20133;-72
2021/12/09 05:32:07;;;;;;;21.95;9.52;;;;;;;3.53;66.92;98558.00;4995838;28;20051;-72
2021/12/09 05:33:30;;;;;;;11.25;5.53;;;;;;;3.46;67.63;98590.69;4996137;28;20058;-72
2021/12/09 05:36:03;;;;;;;11.40;5.25;;;;;;;3.32;67.58;98599.00;4995729;28;20042;-72
2021/12/09 05:38:36;;;;;;;15.10;5.75;;;;;;;3.45;66.99;98599.13;4995637;28;20038;-72
2021/12/09 05:41:09;;;;;;;11.45;5.22;;;;;;;3.42;67.87;98597.41;4995936;28;20129;-72
2021/12/09 05:43:42;;;;;;;9.77;4.82;;;;;;;3.45;67.62;98599.97;4995651;28;20072;-72
2021/12/09 05:46:14;;;;;;;19.00;6.90;;;;;;;3.46;68.08;98591.56;4995458;28;20133;-72
2021/12/09 05:48:47;;;;;;;19.73;8.30;;;;;;;3.49;68.08;98591.59;4994809;28;20053;-73
2021/12/09 05:51:16;;;;;;;18.17;7.20;;;;;;;3.26;68.35;98588.00;4995418;28;20046;-72
2021/12/09 05:53:48;;;;;;;18.58;7.63;;;;;;;3.14;68.28;98587.88;4995424;28;20080;-73
2021/12/09 05:56:22;;;;;;;18.13;7.30;;;;;;;3.08;69.12;98582.75;4995395;28;20042;-72
2021/12/09 05:58:52;;;;;;;15.73;6.50;;;;;;;3.07;68.92;98578.56;5010372;28;20129;-73
2021/12/09 06:01:22;;;;;;;21.42;7.65;;;;;;;3.15;68.82;98584.50;4995238;28;20058;-72
2021/12/09 06:03:51;;;;;;;17.80;7.07;;;;;;;3.15;69.16;98579.47;4995598;28;20042;-72
2021/12/09 06:06:21;;;;;;;14.82;6.35;;;;;;;3.24;69.76;98575.38;4995178;28;20125;-73
2021/12/09 06:08:50;;;;;;;13.45;5.68;;;;;;;3.24;69.04;98572.00;4995395;28;20444;-73
2021/12/09 06:11:23;;;;;;;;;;;;;;;3.32;69.10;98578.81;4995759;28;20077;-72
2021/12/09 06:13:53;;;;;;;12.02;5.85;;;;;;;3.28;69.35;98578.78;4995388;28;19968;-72
2021/12/09 06:16:25;;;;;;;12.75;5.18;;;;;;;3.31;69.31;98578.81;4995003;28;20085;-72
2021/12/09 06:18:56;;;;;;;12.50;5.15;;;;;;;3.28;69.41;98566.16;4993997;28;20054;-73
2021/12/09 06:21:28;;;;;;;12.85;5.80;;;;;;;3.39;68.81;98575.53;4994923;28;20508;-73
2021/12/09 06:24:01;;;;;;;13.88;6.15;;;;;;;3.39;69.66;98569.63;4995232;28;20046;-72
2021/12/09 06:26:35;;;;;;;13.10;5.50;;;;;;;3.34;68.90;98556.97;4994803;28;20054;-72
2021/12/09 06:29:07;;;;;;;11.68;5.35;;;;;;;3.34;68.73;98551.09;4994763;28;20208;-73
2021/12/09 06:31:37;;;;;;;11.20;4.60;;;;;;;3.39;69.11;98546.94;4995012;28;20046;-72
2021/12/09 06:34:07;;;;;;;10.05;4.10;;;;;;;3.42;68.69;98536.88;4994736;28;20046;-73
2021/12/09 06:36:39;;;;;;;12.63;4.18;;;;;;;3.49;67.94;98546.19;4994921;28;20092;-73
2021/12/09 06:39:09;;;;;;;9.57;4.40;;;;;;;3.60;67.22;98548.81;4995341;28;20476;-73
2021/12/09 06:41:43;;;;;;;13.32;4.85;;;;;;;3.59;67.40;98526.94;4994762;28;20046;-72
2021/12/09 06:44:12;;;;;;;12.32;4.68;;;;;;;3.55;67.25;98521.00;4994613;28;20101;-73
2021/12/09 06:46:44;;;;;;;;;;;;;;;3.56;67.20;98532.81;4994925;28;20042;-73
2021/12/09 06:49:17;;;;;;;10.00;4.53;;;;;;;3.66;67.12;98543.81;4994773;28;20341;-73
2021/12/09 06:51:49;;;;;;;10.10;5.20;;;;;;;3.71;66.44;98550.59;5009285;28;20057;-72
2021/12/09 06:54:22;;;;;;;11.45;4.70;;;;;;;3.71;66.84;98547.22;4994505;28;20050;-73
2021/12/09 06:56:55;;;;;;;13.35;5.60;;;;;;;3.71;66.35;98534.59;4994778;28;20056;-72
2021/12/09 06:59:28;;;;;;;11.13;4.88;;;;;;;3.69;65.54;98533.75;4993933;28;20154;-72
2021/12/09 07:02:02;;;;;;;10.95;5.22;;;;;;;3.61;65.80;98547.97;4994285;28;20057;-72
2021/12/09 07:04:35;;;;;;;13.52;4.93;;;;;;;3.56;65.61;98542.03;4994299;28;20054;-72
2021/12/09 07:07:08;;;;;;;10.45;4.40;;;;;;;3.50;64.95;98547.91;4994611;28;20046;-73
2021/12/09 07:09:42;;;;;;;11.20;4.47;;;;;;;3.48;65.36;98547.00;4994617;28;20046;-72
2021/12/09 07:12:16;;;;;;;12.25;4.38;;;;;;;3.40;65.73;98551.16;4994198;28;20058;-73
2021/12/09 07:14:49;;;;;;;13.75;4.93;;;;;;;3.43;65.47;98546.16;4994132;28;20082;-72
2021/12/09 07:17:22;;;;;;;13.23;4.97;;;;;;;3.40;65.72;98546.13;4994047;28;20058;-72
2021/12/09 07:19:54;;;;;;;11.13;4.90;;;;;;;3.37;65.78;98536.00;4992214;28;20534;-72
2021/12/09 07:22:26;;;;;;;12.70;5.03;;;;;;;3.46;66.17;98543.63;4994456;28;20046;-72
2021/12/09 07:24:59;;;;;;;15.15;6.18;;;;;;;3.44;65.38;98532.69;4994057;28;20058;-72
2021/12/09 07:27:32;;;;;;;12.82;4.82;;;;;;;3.38;65.69;98525.09;4994034;28;20046;-73
2021/12/09 07:30:07;;;;;;;12.48;5.65;;;;;;;3.40;66.09;98525.94;5008811;28;20046;-72
2021/12/09 07:32:43;;;;;;;9.23;4.53;;;;;;;3.36;65.81;98525.06;4994239;28;20054;-72
2021/12/09 07:35:16;;;;;;;13.02;5.03;;;;;;;3.40;66.69;98533.50;4994022;28;20051;-72
2021/12/09 07:37:49;;;;;;;14.45;5.35;;;;;;;3.43;66.36;98531.03;4993960;28;20101;-72
2021/12/09 07:40:19;;;;;;;13.13;6.25;;;;;;;3.41;66.45;98532.66;4993842;28;20566;-72
2021/12/09 07:42:53;;;;;;;13.38;5.82;;;;;;;3.38;67.09;98532.66;4993917;28;20132;-72
2021/12/09 07:45:27;;;;;;;16.30;6.05;;;;;;;3.41;66.80;98534.38;4993897;28;20058;-73
2021/12/09 07:48:00;;;;;;;12.05;5.78;;;;;;;3.33;67.77;98530.09;4993889;28;20062;-72
2021/12/09 07:50:33;;;;;;;13.68;6.60;;;;;;;3.12;68.05;98499.63;4993791;28;20052;-72
2021/12/09 07:53:06;;;;;;;12.95;6.00;;;;;;;3.44;68.08;98546.97;4994149;28;20047;-72
2021/12/09 07:55:38;;;;;;;13.93;6.45;;;;;;;3.41;68.22;98549.50;4994121;28;20054;-72
2021/12/09 07:58:10;;;;;;;16.17;6.50;;;;;;;3.38;68.38;98563.72;4993798;28;20050;-72
2021/12/09 08:00:43;;;;;;;13.80;6.07;;;;;;;3.44;68.23;98565.47;4993701;28;20042;-72
2021/12/09 08:03:16;;;;;;;12.30;5.45;;;;;;;3.47;68.70;98565.50;4994100;28;20133;-72
2021/12/09 08:05:49;;;;;;;14.35;6.53;;;;;;;3.50;68.19;98565.56;4994083;28;20542;-72
2021/12/09 08:08:19;;;;;;;16.85;6.90;;;;;;;3.56;68.45;98558.03;4993719;28;20074;-73
2021/12/09 08:10:48;;;;;;;;;;;;;;;3.55;68.63;98556.31;4995606;28;20096;-73
2021/12/09 08:13:23;;;;;;;15.13;6.93;;;;;;;3.58;68.39;98543.75;4997300;28;19925;-72
2021/12/09 08:15:54;;;;;;;14.73;7.05;;;;;;;3.52;68.75;98551.28;4997259;28;20039;-72
2021/12/09 08:18:27;;;;;;;14.20;6.38;;;;;;;3.58;68.75;98531.13;4997533;28;20125;-72
2021/12/09 08:21:03;;;;;;;14.48;7.18;;;;;;;3.57;69.25;98532.00;4997074;28;20538;-73
2021/12/09 08:23:36;;;;;;;13.07;6.03;;;;;;;3.55;68.92;98526.06;4998221;28;20453;-72
2021/12/09 08:26:09;;;;;;;15.20;6.22;;;;;;;3.49;69.62;98536.09;4997076;28;20077;-72
2021/12/09 08:28:41;;;;;;;13.15;6.25;;;;;;;3.50;69.35;98547.91;5012193;28;20505;-72
2021/12/09 08:31:11;;;;;;;14.52;7.20;;;;;;;3.36;69.90;98524.22;4996986;28;20046;-72
2021/12/09 08:33:43;;;;;;;;;;;;;;;3.34;70.27;98531.78;4997618;28;20050;-73
2021/12/09 08:36:36;;;;;;;11.73;5.30;;;;;;;3.35;71.25;98532.63;4996934;28;20265;-73
2021/12/09 08:39:08;;;;;;;12.00;6.35;;;;;;;3.40;71.66;98531.00;4997151;28;20104;-71
2021/12/09 08:41:39;;;;;;;12.95;5.75;;;;;;;3.48;72.05;98528.53;4996655;28;20112;-73
2021/12/09 08:44:09;;;;;;;12.38;5.65;;;;;;;3.56;71.45;98527.75;4996797;28;20068;-72
2021/12/09 08:46:39;;;;;;;14.75;7.03;;;;;;;3.55;71.36;98510.09;4997083;28;20054;-73
2021/12/09 08:49:09;;;;;;;10.27;5.32;;;;;;;3.54;72.38;98504.22;4996663;28;20043;-74
2021/12/09 08:51:41;;;;;;;;;;;;;;;3.52;71.85;98522.69;4996985;28;20046;-72
2021/12/09 08:54:11;;;;;;;10.30;5.22;;;;;;;3.46;71.81;98504.97;4996577;28;19928;-73
2021/12/09 08:56:50;;;;;;;13.02;5.15;;;;;;;3.53;71.48;98494.13;4996726;28;20042;-73
2021/12/09 08:59:22;;;;;;;16.33;6.60;;;;;;;3.60;71.81;98506.75;4996478;28;20050;-72
2021/12/09 09:02:14;;;;;;;11.73;5.30;;;;;;;3.72;72.13;98489.19;4996455;28;20491;-72
2021/12/09 09:04:46;;;;;;;14.25;5.90;;;;;;;3.81;72.07;98489.28;4996373;28;20047;-72
2021/12/09 09:07:18;;;;;;;11.98;5.80;;;;;;;3.80;72.21;98487.59;4996373;28;20057;-73
2021/12/09 09:09:51;;;;;;;15.45;6.38;;;;;;;3.81;72.98;98483.38;4996268;28;20129;-72
2021/12/09 09:12:20;;;;;;;12.85;6.65;;;;;;;3.81;72.60;98489.28;4996230;28;20050;-72
2021/12/09 09:14:54;;;;;;;14.82;7.18;;;;;;;3.81;72.85;98499.38;4996109;28;20050;-73
2021/12/09 09:17:28;;;;;;;14.10;6.13;;;;;;;3.75;73.31;98484.19;5011212;28;20052;-72
2021/12/09 09:19:58;;;;;;;14.82;6.65;;;;;;;3.80;73.12;98487.59;4995461;28;20050;-73
2021/12/09 09:22:30;;;;;;;15.10;7.55;;;;;;;3.75;73.23;98484.19;4996092;28;20125;-73
2021/12/09 09:25:03;;;;;;;13.70;5.95;;;;;;;3.80;73.25;98482.53;4996236;28;20496;-73
2021/12/09 09:27:36;;;;;;;11.32;5.90;;;;;;;3.82;74.05;98483.38;4995910;28;20042;-73
2021/12/09 09:30:14;;;;;;;16.55;6.45;;;;;;;3.89;74.00;98476.69;4995894;28;20054;-73
2021/12/09 09:32:48;;;;;;;14.45;6.70;;;;;;;3.79;73.33;98475.78;4995912;28;20078;-73
2021/12/09 09:35:22;;;;;;;11.32;6.15;;;;;;;3.80;73.94;98485.06;4996089;28;20247;-72
2021/12/09 09:37:54;;;;;;;13.95;6.18;;;;;;;3.82;73.75;98480.88;4996089;28;20495;-73
2021/12/09 09:40:38;;;;;;;16.00;7.18;;;;;;;3.75;74.11;98486.69;4995944;28;20042;-73
2021/12/09 09:43:25;;;;;;;11.43;5.40;;;;;;;3.71;74.02;98476.59;4995672;28;20050;-73
2021/12/09 09:46:06;;;;;;;11.63;5.70;;;;;;;3.63;74.10;98471.47;4995911;28;20042;-73
2021/12/09 09:48:36;;;;;;;16.80;6.55;;;;;;;3.64;74.75;98473.19;4995543;28;20050;-73
2021/12/09 09:51:05;;;;;;;;;;;;;;;3.64;74.80;98477.38;4995971;28;20497;-72
2021/12/09 09:53:41;;;;;;;10.60;5.40;;;;;;;3.66;75.01;98481.59;4996029;28;19972;-73
2021/12/09 09:58:57;;;;;;;9.48;4.70;;;;;;;3.69;75.61;98475.72;4993460;28;20050;-73
2021/12/09 10:01:34;;;;;;;10.57;4.70;;;;;;;3.68;74.90;98469.84;4993316;28;20049;-72
2021/12/09 10:04:13;;;;;;;8.57;3.78;;;;;;;3.74;74.66;98482.47;4993462;28;20042;-73
2021/12/09 10:06:46;;;;;;;8.80;3.90;;;;;;;3.72;75.08;98489.19;4977404;28;20050;-75
2021/12/09 10:09:17;;;;;;;12.45;4.65;;;;;;;3.79;75.42;98490.94;4993451;28;20268;-72
2021/12/09 10:11:50;;;;;;;10.70;4.75;;;;;;;3.77;74.98;98485.03;4993473;28;20046;-74
2021/12/09 10:14:22;;;;;;;9.65;4.65;;;;;;;3.73;75.14;98495.94;4993229;28;20428;-73
2021/12/09 10:17:07;;;;;;;8.98;3.45;;;;;;;3.68;75.14;98499.25;4993194;28;20054;-74
2021/12/09 10:19:39;;;;;;;9.90;4.70;;;;;;;3.75;75.90;98496.78;4992767;28;20077;-73
2021/12/09 10:22:11;;;;;;;9.82;4.60;;;;;;;3.73;75.72;98502.66;4992930;28;20142;-73
2021/12/09 10:24:43;;;;;;;10.95;4.85;;;;;;;3.82;75.56;98506.09;4992883;28;20056;-73
2021/12/09 10:27:24;;;;;;;8.93;4.70;;;;;;;3.87;75.71;98504.44;4992776;28;20064;-72
2021/12/09 10:30:02;;;;;;;10.27;4.18;;;;;;;3.77;75.43;98507.75;4993873;28;20058;-72
2021/12/09 10:32:36;;;;;;;8.40;4.07;;;;;;;3.54;75.82;98514.28;4994883;28;20097;-72
2021/12/09 10:35:11;;;;;;;6.85;3.30;;;;;;;3.45;75.85;98514.22;4994451;28;20065;-73
2021/12/09 10:37:45;;;;;;;7.95;3.83;;;;;;;3.42;76.35;98519.22;4994693;28;20046;-72
2021/12/09 10:40:16;;;;;;;7.75;3.60;;;;;;;3.45;76.56;98519.28;4994917;28;20072;-73
2021/12/09 10:42:51;;;;;;;10.80;4.40;;;;;;;3.39;76.50;98531.81;4994571;28;20396;-72
2021/12/09 10:45:25;;;;;;;9.00;4.72;;;;;;;3.24;76.79;98517.38;4994501;28;20114;-73
2021/12/09 10:48:05;;;;;;;11.30;5.32;;;;;;;3.21;77.20;98521.56;4994808;28;20389;-73
2021/12/09 10:50:46;;;;;;;9.98;4.82;;;;;;;3.22;77.50;98525.75;4994394;28;20508;-73
2021/12/09 10:53:32;;;;;;;10.82;4.78;;;;;;;3.30;77.46;98507.38;4994753;28;20050;-73
2021/12/09 10:56:10;;;;;;;13.23;5.28;;;;;;;3.23;77.22;98507.28;4994690;28;20399;-73
2021/12/09 10:58:45;;;;;;;9.48;4.50;;;;;;;3.23;77.94;98505.63;4994679;28;20046;-74
2021/12/09 11:01:16;;;;;;;12.52;5.57;;;;;;;3.31;77.70;98510.75;4994373;28;20050;-75
2021/12/09 11:03:50;;;;;;;14.40;5.82;;;;;;;3.35;78.53;98503.22;4994751;28;20089;-75
2021/12/09 11:06:21;;;;;;;11.25;5.43;;;;;;;3.38;78.01;98507.44;4994370;28;20073;-75
2021/12/09 11:08:55;;;;;;;10.23;5.60;;;;;;;3.39;78.09;98494.84;4995257;28;20394;-75
2021/12/09 11:11:33;;;;;;;10.75;4.43;;;;;;;3.38;78.05;98499.88;4994307;28;20496;-71
2021/12/09 11:14:10;;;;;;;12.77;5.60;;;;;;;3.42;78.15;98499.06;4994555;28;20050;-73
2021/12/09 11:16:46;;;;;;;9.70;5.60;;;;;;;3.49;77.93;98500.81;4993418;28;20400;-68
2021/12/09 11:19:24;;;;;;;10.32;5.35;;;;;;;3.56;78.98;98492.44;4993671;28;20089;-68
2021/12/09 11:22:01;;;;;;;10.35;5.30;;;;;;;3.64;79.08;98500.09;4993844;28;20042;-68
2021/12/09 11:24:37;;;;;;;9.43;4.70;;;;;;;3.54;78.39;98500.84;4994320;28;20517;-67
2021/12/09 11:27:11;;;;;;;11.82;5.10;;;;;;;3.55;78.28;98495.78;4994010;28;20400;-68
2021/12/09 11:29:42;;;;;;;13.38;5.50;;;;;;;3.58;78.53;98500.00;4993996;28;20046;-65
2021/12/09 11:32:27;;;;;;;11.82;5.30;;;;;;;3.59;78.19;98492.47;4993963;28;20042;-68
2021/12/09 11:35:12;;;;;;;13.27;6.00;;;;;;;3.62;78.73;98492.50;4993888;28;20053;-68
2021/12/09 11:37:58;;;;;;;10.15;5.05;;;;;;;3.64;78.12;98485.78;4993971;28;20058;-69
2021/12/09 11:40:35;;;;;;;9.98;4.65;;;;;;;3.51;78.20;98481.47;4994586;28;20450;-67
2021/12/09 11:43:10;;;;;;;11.85;4.57;;;;;;;3.46;78.57;98478.06;4993874;28;20488;-68
2021/12/09 11:45:44;;;;;;;9.80;4.57;;;;;;;3.46;78.88;98480.59;5003579;28;20456;-69
2021/12/09 11:48:14;;;;;;;10.77;5.53;;;;;;;3.54;78.04;98476.47;5016232;28;20387;-69
2021/12/09 11:50:47;;;;;;;10.23;4.30;;;;;;;3.49;79.06;98474.72;5016380;28;20053;-70
2021/12/09 11:53:19;;;;;;;9.05;4.72;;;;;;;3.49;78.26;98474.72;5016714;28;20045;-69
2021/12/09 11:56:01;;;;;;;8.55;4.60;;;;;;;3.46;78.27;98465.47;5017504;28;20053;-68
2021/12/09 11:58:37;;;;;;;11.80;5.15;;;;;;;3.42;79.02;98461.25;5017324;28;20403;-67
2021/12/09 12:07:12;;;;;;;9.48;4.65;;;;;;;3.32;78.34;98449.38;4997886;28;20050;-70
2021/12/09 12:12:36;;;;;;;11.05;4.70;;;;;;;3.10;78.54;98433.25;5004707;28;20045;-68
2021/12/09 12:15:32;;;;;;;11.65;5.13;;;;;;;3.04;78.58;98429.84;5006777;28;20112;-67
2021/12/09 12:18:25;;;;;;;11.93;4.93;;;;;;;2.92;78.76;98434.75;5000178;28;20047;-67